PWSweather.com
Personal Weather Stations
Station Observations
WATERF01
WaterfordIE

WaterfordIE

Lat: 52.2412507, Lon: -7.1414691

Elevation: 65

Station Type: Davis Vantage Vue

Latest ConditionsUpdated 8:30:04 AM GMT Thursday, Dec 12, 2019
Currently Today's Max Today's Min Today's Average
Temperature 48.2°F9.0°C 49.2°F9.6°C 40.9°F4.9°C 46.7°F8.2°C
Dew Point 44.8°F7.1°C 45.8°F7.7°C 36.7°F2.6°C 43.2°F6.2°C
Winds 4.6 mph W7.4 kmh W 10.4 mph -16.7 kmh - - 4.6 mph 7.4 kmh
Wind Gusts 6.9 mph11.1 kmh 18.4 mph29.6 kmh - -
Humidity 88% 89% 85% 88%
Pressure 29.04 in983.4 mb 29.49 in998.6 mb 29.04 in983.4 mb -
Precipitation - 0.30 in7.6 mm - -
Hour Temp Dew Point Humidity Winds Wind Gusts Pressure Precip Precip Rate Daily Precip Total
08:30 AM 48.2°F9.0°C 44.8°F7.1°C 88% 4.6 mph W7.4 kmh W 6.9 mph11.1 kmh 29.04 in983.4 mb - 0.04 in1.0 mm 0.30 in7.6 mm
08:20 AM 48.5°F9.2°C 45.1°F7.3°C 88% 2.3 mph W3.7 kmh W 4.6 mph7.4 kmh 29.04 in983.4 mb - 0.04 in1.0 mm 0.30 in7.6 mm
08:10 AM 48.6°F9.2°C 45.2°F7.3°C 88% 1.2 mph W1.9 kmh W 2.3 mph3.7 kmh 29.04 in983.4 mb - 0.04 in1.0 mm 0.29 in7.4 mm
08:00 AM 48.8°F9.3°C 45.4°F7.4°C 88% 2.3 mph W3.7 kmh W 2.3 mph3.7 kmh 29.05 in983.7 mb - 0.05 in1.3 mm 0.28 in7.1 mm
07:50 AM 48.9°F9.4°C 45.5°F7.5°C 88% 2.3 mph W3.7 kmh W 4.6 mph7.4 kmh 29.05 in983.7 mb - 0.05 in1.3 mm 0.27 in6.9 mm
07:40 AM 49.1°F9.5°C 45.7°F7.6°C 88% 2.3 mph W3.7 kmh W 5.8 mph9.3 kmh 29.05 in983.7 mb - 0.04 in1.0 mm 0.26 in6.6 mm
07:30 AM 49.2°F9.6°C 45.8°F7.7°C 88% 4.6 mph WSW7.4 kmh WSW 8.1 mph13.0 kmh 29.05 in983.7 mb - 0.05 in1.3 mm 0.26 in6.6 mm
07:20 AM 49.2°F9.6°C 45.8°F7.7°C 88% 4.6 mph SW7.4 kmh SW 9.2 mph14.8 kmh 29.05 in983.7 mb - 0.05 in1.3 mm 0.26 in6.6 mm
07:10 AM 49.2°F9.6°C 45.8°F7.7°C 88% 3.5 mph WSW5.6 kmh WSW 5.8 mph9.3 kmh 29.06 in984.1 mb - 0.04 in1.0 mm 0.25 in6.4 mm
07:00 AM 49.2°F9.6°C 45.8°F7.7°C 88% 4.6 mph SW7.4 kmh SW 8.1 mph13.0 kmh 29.07 in984.4 mb - 0.03 in0.8 mm 0.24 in6.1 mm
06:50 AM 49.0°F9.4°C 45.6°F7.6°C 88% 4.6 mph W7.4 kmh W 8.1 mph13.0 kmh 29.07 in984.4 mb - 0.01 in0.3 mm 0.22 in5.6 mm
06:40 AM 48.5°F9.2°C 45.1°F7.3°C 88% 1.2 mph W1.9 kmh W 5.8 mph9.3 kmh 29.08 in984.8 mb - 0.01 in0.3 mm 0.22 in5.6 mm
06:30 AM 48.5°F9.2°C 45.1°F7.3°C 88% 1.2 mph W1.9 kmh W 2.3 mph3.7 kmh 29.09 in985.1 mb - 0.00 in0.0 mm 0.21 in5.3 mm
06:20 AM 48.4°F9.1°C 45.0°F7.2°C 88% 1.2 mph WSW1.9 kmh WSW 5.8 mph9.3 kmh 29.10 in985.4 mb - 0.00 in0.0 mm 0.21 in5.3 mm
06:10 AM 48.4°F9.1°C 45.0°F7.2°C 88% 3.5 mph NW5.6 kmh NW 5.8 mph9.3 kmh 29.11 in985.8 mb - 0.00 in0.0 mm 0.21 in5.3 mm
06:00 AM 48.3°F9.1°C 44.9°F7.2°C 88% 4.6 mph W7.4 kmh W 5.8 mph9.3 kmh 29.11 in985.8 mb - 0.00 in0.0 mm 0.21 in5.3 mm
05:50 AM 48.1°F8.9°C 45.0°F7.2°C 89% 3.5 mph S5.6 kmh S 5.8 mph9.3 kmh 29.12 in986.1 mb - 0.00 in0.0 mm 0.21 in5.3 mm
05:40 AM 48.0°F8.9°C 44.9°F7.2°C 89% 3.5 mph WSW5.6 kmh WSW 5.8 mph9.3 kmh 29.13 in986.5 mb - 0.01 in0.3 mm 0.21 in5.3 mm
05:30 AM 47.5°F8.6°C 44.4°F6.9°C 89% 3.5 mph SW5.6 kmh SW 5.8 mph9.3 kmh 29.14 in986.8 mb - 0.01 in0.3 mm 0.21 in5.3 mm
05:20 AM 47.3°F8.5°C 43.9°F6.6°C 88% 4.6 mph WSW7.4 kmh WSW 8.1 mph13.0 kmh 29.14 in986.8 mb - 0.02 in0.5 mm 0.21 in5.3 mm
05:10 AM 47.0°F8.3°C 43.7°F6.5°C 88% 5.8 mph SW9.3 kmh SW 8.1 mph13.0 kmh 29.15 in987.1 mb - 0.02 in0.5 mm 0.21 in5.3 mm
05:00 AM 46.9°F8.3°C 43.5°F6.4°C 88% 5.8 mph S9.3 kmh S 8.1 mph13.0 kmh 29.16 in987.5 mb - 0.02 in0.5 mm 0.21 in5.3 mm
04:50 AM 46.9°F8.3°C 43.5°F6.4°C 88% 5.8 mph S9.3 kmh S 8.1 mph13.0 kmh 29.17 in987.8 mb - 0.03 in0.8 mm 0.21 in5.3 mm
04:40 AM 47.1°F8.4°C 43.7°F6.5°C 88% 5.8 mph SW9.3 kmh SW 11.5 mph18.5 kmh 29.19 in988.5 mb - 0.04 in1.0 mm 0.20 in5.1 mm
04:30 AM 47.5°F8.6°C 44.1°F6.7°C 88% 6.9 mph S11.1 kmh S 11.5 mph18.5 kmh 29.20 in988.8 mb - 0.05 in1.3 mm 0.20 in5.1 mm
04:20 AM 47.6°F8.7°C 44.2°F6.8°C 88% 8.1 mph S13.0 kmh S 11.5 mph18.5 kmh 29.21 in989.2 mb - 0.05 in1.3 mm 0.19 in4.8 mm
04:10 AM 47.6°F8.7°C 44.2°F6.8°C 88% 5.8 mph SW9.3 kmh SW 10.4 mph16.7 kmh 29.22 in989.5 mb - 0.05 in1.3 mm 0.19 in4.8 mm
04:00 AM 47.5°F8.6°C 44.2°F6.8°C 88% 5.8 mph WSW9.3 kmh WSW 13.8 mph22.2 kmh 29.23 in989.8 mb - 0.06 in1.5 mm 0.19 in4.8 mm
03:50 AM 47.6°F8.7°C 44.2°F6.8°C 88% 5.8 mph W9.3 kmh W 11.5 mph18.5 kmh 29.24 in990.2 mb - 0.05 in1.3 mm 0.18 in4.6 mm
03:40 AM 47.7°F8.7°C 44.3°F6.8°C 88% 8.1 mph WSW13.0 kmh WSW 13.8 mph22.2 kmh 29.25 in990.5 mb - 0.04 in1.0 mm 0.17 in4.3 mm
03:30 AM 47.7°F8.7°C 44.3°F6.8°C 88% 4.6 mph SSW7.4 kmh SSW 9.2 mph14.8 kmh 29.26 in990.9 mb - 0.03 in0.8 mm 0.16 in4.1 mm
03:20 AM 47.7°F8.7°C 44.3°F6.8°C 88% 5.8 mph SW9.3 kmh SW 11.5 mph18.5 kmh 29.27 in991.2 mb - 0.02 in0.5 mm 0.14 in3.6 mm
03:10 AM 47.6°F8.7°C 44.2°F6.8°C 88% 9.2 mph SSW14.8 kmh SSW 18.4 mph29.6 kmh 29.28 in991.5 mb - 0.02 in0.5 mm 0.14 in3.6 mm
03:00 AM 47.5°F8.6°C 44.1°F6.7°C 88% 6.9 mph NW11.1 kmh NW 16.1 mph25.9 kmh 29.29 in991.9 mb - 0.03 in0.8 mm 0.13 in3.3 mm
02:50 AM 47.4°F8.6°C 44.0°F6.7°C 88% 6.9 mph WSW11.1 kmh WSW 13.8 mph22.2 kmh 29.30 in992.2 mb - 0.04 in1.0 mm 0.13 in3.3 mm
02:40 AM 47.4°F8.6°C 44.0°F6.7°C 88% 8.1 mph S13.0 kmh S 13.8 mph22.2 kmh 29.31 in992.6 mb - 0.05 in1.3 mm 0.13 in3.3 mm
02:30 AM 47.2°F8.4°C 43.8°F6.6°C 88% 9.2 mph WSW14.8 kmh WSW 17.3 mph27.8 kmh 29.32 in992.9 mb - 0.06 in1.5 mm 0.13 in3.3 mm
02:20 AM 46.9°F8.3°C 43.6°F6.4°C 88% 10.4 mph WSW16.7 kmh WSW 15.0 mph24.1 kmh 29.32 in992.9 mb - 0.06 in1.5 mm 0.13 in3.3 mm
02:10 AM 46.5°F8.1°C 43.1°F6.2°C 88% 9.2 mph W14.8 kmh W 16.1 mph25.9 kmh 29.34 in993.6 mb - 0.06 in1.5 mm 0.12 in3.0 mm
02:00 AM 46.2°F7.9°C 42.8°F6.0°C 88% 8.1 mph SW13.0 kmh SW 15.0 mph24.1 kmh 29.35 in993.9 mb - 0.05 in1.3 mm 0.10 in2.5 mm
01:50 AM 45.9°F7.7°C 42.5°F5.8°C 88% 8.1 mph SSW13.0 kmh SSW 12.7 mph20.4 kmh 29.36 in994.2 mb - 0.05 in1.3 mm 0.09 in2.3 mm
01:40 AM 45.3°F7.4°C 42.0°F5.6°C 88% 8.1 mph WSW13.0 kmh WSW 12.7 mph20.4 kmh 29.37 in994.6 mb - 0.05 in1.3 mm 0.08 in2.0 mm
01:30 AM 44.5°F6.9°C 41.2°F5.1°C 88% 3.5 mph SSW5.6 kmh SSW 8.1 mph13.0 kmh 29.39 in995.3 mb - 0.06 in1.5 mm 0.07 in1.8 mm
01:20 AM 43.9°F6.6°C 40.6°F4.8°C 88% 3.5 mph SE5.6 kmh SE 5.8 mph9.3 kmh 29.40 in995.6 mb - 0.06 in1.5 mm 0.07 in1.8 mm
01:10 AM 43.2°F6.2°C 39.9°F4.4°C 88% 3.5 mph W5.6 kmh W 5.8 mph9.3 kmh 29.41 in995.9 mb - 0.06 in1.5 mm 0.06 in1.5 mm
01:00 AM 41.1°F5.1°C 37.6°F3.1°C 87% Calm Calm 5.8 mph9.3 kmh 29.43 in996.6 mb - 0.05 in1.3 mm 0.05 in1.3 mm
12:50 AM 41.0°F5.0°C 37.4°F3.0°C 87% Calm Calm -- 29.44 in997.0 mb - 0.05 in1.3 mm 0.05 in1.3 mm
12:40 AM 40.9°F4.9°C 37.1°F2.8°C 86% 2.3 mph E3.7 kmh E 2.3 mph3.7 kmh 29.45 in997.3 mb - 0.03 in0.8 mm 0.03 in0.8 mm
12:30 AM 41.0°F5.0°C 37.1°F2.8°C 86% Calm Calm -- 29.47 in998.0 mb - 0.01 in0.3 mm 0.01 in0.3 mm
12:20 AM 41.1°F5.1°C 37.0°F2.8°C 85% Calm Calm -- 29.48 in998.3 mb - 0.01 in0.3 mm 0.01 in0.3 mm
12:10 AM 41.1°F5.1°C 36.9°F2.7°C 85% 1.2 mph WSW1.9 kmh WSW 2.3 mph3.7 kmh 29.49 in998.6 mb - 0.00 in0.0 mm 0.00 in0.0 mm
12:00 AM 40.9°F4.9°C 36.7°F2.6°C 85% 3.5 mph SSW5.6 kmh SSW 6.9 mph11.1 kmh 29.49 in998.6 mb - 0.00 in0.0 mm 0.00 in0.0 mm